19:11
Airports
History
Links
Donate
Help keep this website running!
PayPal
Bitcoin
This page is community maintained. The information is intended for PC simulator navigation or reference.
Always use approved charts for navigation.
EDHW
Wahlstedt
Wahlstedt (EDHW)
Wahlstedt, Schleswig-Holstein, Germany (23812)
(C)
Lat/Lng:53° 58' 10.2" N / 10° 13' 17.83" E
53.969501 / 10.221619
Elevation:128'ft / 39mMSL
ID / ICAO:EDHW
Runways:1
Longest:11-29
Grass 805m / 2,640ft
Controlled:Yes
Nearby Weather16:50 GMT 2017-12-11
Nearby weather at EDHL, Lubeck Blankensee located 23.2 nautical miles from EDHW
Altimeter: 29.06
Visibility: 0.9 statute miles
Wind: 7 knots (from 090°)
Temp: 0°c / 32°f
Humidity: %

METAR: EDHL 111650Z 09007KT 1500 R25/P2000N -SN BR OVC002 00/00 Q0984

(Powered by phpweather)
Airport Radio Frequencies
Tower: 121.05
Nearby VORs <50NM
Nearby NDBs
Runway 11 / 29
Dimensions:804.7 x 29.9m 2640' x 98'ft
Surface:Grass
Runway 11 [A]Runway 29 [B]
Heading:112°TH 292°TH
Lat:
Lng:
53° 58' 15.27"N
10° 12' 57.55"E
53° 58' 5.14"N
10° 13' 38.11"E
User Notes and Comments
53° 58' 10.2" N / 10° 13' 17.83" E
Distance To
Airport ID:
Nearby Airports
(U) Hartenholm 8.3 NM
EDHM WSW 242°
(C) Neumuenster 13.6 NM
EDHN WNW 302°
(C) Sierksdorf Hof Altona 22.2 NM
EDXT ENE 72°
(C) Lubeck Blankensee 23.2 NM
EDHL ( WX ) ESE 119°
(C) Hamburg 25.0 NM
EDDH ( WX ) SSW 202°
(C) Hungriger Wolf 26.4 NM
EDHF W 273°
(C) Ahrenlohe 26.9 NM
EDHO SW 226°
VFR Chart
Flight Planning at SkyVector.com